Wilton, WI (54670)

4:27 PM CST on January 30, 2015 (GMT -0600)
KWIONTAR2 | Change Station
CLOSE
Current Station
Personal Weather Station
Location: Ontario, WI
Elevation: 938 ft
Nearby Weather Stations

Elev 938 ft 43.72 °N, 90.59 °W | Updated 1 minute ago

Mostly Cloudy
Mostly Cloudy
24.7 °F
Feels Like 25 °F
N
2.0
Wind Variable Wind from South
Gusts 3.0 mph

Today
High -- | Low -- °F
--% Chance of Precip.
Yesterday
High -- | Low -- °F
Precip. -- in
7:21 AM 5:09 PM
Waxing Gibbous, 85% visible
Pressure 30.39 in
Visibility 10.0 miles
Clouds Scattered Clouds 12000 ft
Windchill 25 °F
Dew Point 11 °F
Humidity 55%
Rainfall 0.00 in
Snow Depth Not available.
UV 0.0 out of 12
Pollen .10 out of 12
Air Quality Not available.
Flu Activity Not available.
METAR KCMY 302215Z AUTO 19003KT 10SM SCT120 M05/M14 A3039 RMK AO2 T10471140

More Conditions Fewer Conditions

Pressure 30.39 in
Visibility 10.0 miles
Clouds Scattered Clouds 12000 ft
Windchill 25 °F
Dew Point 11 °F
Humidity 55%
Rainfall 0.00 in
Snow Depth Not available.
UV 0.0 out of 12
Pollen .10 out of 12
Air Quality Not available.
Flu Activity Not available.
METAR KCMY 302215Z AUTO 19003KT 10SM SCT120 M05/M14 A3039 RMK AO2 T10471140

More Conditions Fewer Conditions

10-Day Weather Forecast

Almanac

Astronomy

Jan. 30, 2015 Rise Set
Actual Time
Civil Twilight
Nautical Twilight
Astronomical Twilight
Moon
Length of Visible Light
Length of Day
Tomorrow will be .
, % of the Moon is Illuminated

Today's Extremes

State Highs State Lows

Community

WunderPhotos

Upload Photos

1,791,904 photos uploaded!

WunderBlogs® & News

Nearby

Air Quality

  Air Quality AQ Index Pollutant
Not available.

Snow Depth

Station Depth Elevation

Earthquake Activity

City Distance Mag. Time & Date
Minimum magnitude displayed is 2.5.

Coastal Water Temperatures

Place Temperature

Nearby Weather Stations